createdAt,value
2016-06-29T00:00:07.663Z,91.9
2016-06-29T00:00:17.711Z,92
2016-06-29T00:00:27.667Z,91.8
2016-06-29T00:00:37.664Z,91.6
2016-06-29T00:00:47.678Z,91.7
2016-06-29T00:00:57.674Z,91.7
2016-06-29T00:01:07.952Z,91.6
2016-06-29T00:01:17.730Z,91.5
2016-06-29T00:01:27.695Z,91.4
2016-06-29T00:01:37.715Z,91.2
2016-06-29T00:01:47.734Z,91.4
2016-06-29T00:01:57.751Z,91.1
2016-06-29T00:02:07.729Z,91.3
2016-06-29T00:02:17.744Z,91.3
2016-06-29T00:02:27.780Z,91.9
2016-06-29T00:02:36.556Z,91.9
2016-06-29T00:02:47.751Z,92.1
2016-06-29T00:02:57.764Z,92
2016-06-29T00:03:07.802Z,92
2016-06-29T00:03:17.823Z,92
2016-06-29T00:03:27.787Z,91.8
2016-06-29T00:03:37.792Z,92
2016-06-29T00:03:47.805Z,92.1
2016-06-29T00:03:57.799Z,92.2
2016-06-29T00:04:06.616Z,92.3
2016-06-29T00:04:17.863Z,92.3
2016-06-29T00:04:27.832Z,92.3
2016-06-29T00:04:37.840Z,91.9
2016-06-29T00:04:47.865Z,91.6
2016-06-29T00:04:57.842Z,92.3
2016-06-29T00:05:07.853Z,92.4
2016-06-29T00:05:17.863Z,92.6
2016-06-29T00:05:26.664Z,92.5
2016-06-29T00:05:37.867Z,92.7
2016-06-29T00:05:47.878Z,92.1
2016-06-29T00:05:57.883Z,91.9
2016-06-29T00:06:07.883Z,91.9
2016-06-29T00:06:17.895Z,92
2016-06-29T00:06:27.904Z,92.1
2016-06-29T00:06:37.904Z,91.9
2016-06-29T00:06:47.915Z,92.2
2016-06-29T00:06:57.922Z,92.5
2016-06-29T00:07:06.748Z,92.5
2016-06-29T00:07:17.930Z,92.4
2016-06-29T00:07:26.742Z,92.4
2016-06-29T00:07:37.940Z,92.6
2016-06-29T00:07:47.960Z,92.6
2016-06-29T00:07:57.955Z,92.6
2016-06-29T00:08:07.971Z,92.4
2016-06-29T00:08:17.986Z,92.3
2016-06-29T00:08:27.981Z,92.5
2016-06-29T00:08:37.996Z,92.6
2016-06-29T00:08:47.999Z,93.3
2016-06-29T00:08:58.011Z,93.1
2016-06-29T00:09:08.004Z,92.8
2016-06-29T00:09:18.023Z,92.6
2016-06-29T00:09:28.015Z,93
2016-06-29T00:09:38.099Z,92.9
2016-06-29T00:09:48.031Z,93.5
2016-06-29T00:09:58.053Z,93.6
2016-06-29T00:10:06.904Z,93.6
2016-06-29T00:10:18.075Z,94.3
2016-06-29T00:10:28.077Z,93.9
2016-06-29T00:10:38.061Z,94.1
2016-06-29T00:10:48.077Z,94.1
2016-06-29T00:10:58.151Z,94
2016-06-29T00:11:08.098Z,93.8
2016-06-29T00:11:18.088Z,94
2016-06-29T00:11:28.103Z,93.7
2016-06-29T00:11:38.106Z,94.1
2016-06-29T00:11:48.120Z,93.8
2016-06-29T00:11:58.112Z,93.8
2016-06-29T00:12:08.141Z,93.5
2016-06-29T00:12:18.126Z,94.2
2016-06-29T00:12:28.133Z,93.8
2016-06-29T00:12:38.142Z,93.8
2016-06-29T00:12:48.138Z,93.8
2016-06-29T00:12:58.156Z,93.7
2016-06-29T00:13:08.166Z,93.9
2016-06-29T00:13:18.159Z,94.3
2016-06-29T00:13:28.192Z,94
2016-06-29T00:13:38.179Z,94.5
2016-06-29T00:13:48.176Z,95
2016-06-29T00:13:58.190Z,95.1
2016-06-29T00:14:08.214Z,95.5
2016-06-29T00:14:18.198Z,95.6
2016-06-29T00:14:28.212Z,95.6
2016-06-29T00:14:38.215Z,95.6
2016-06-29T00:14:48.254Z,95.6
2016-06-29T00:14:57.057Z,95.4
2016-06-29T00:15:08.263Z,95.6
2016-06-29T00:15:18.240Z,95.6
2016-06-29T00:15:28.334Z,95.5
2016-06-29T00:15:38.278Z,95.6
2016-06-29T00:15:48.265Z,95.9
2016-06-29T00:15:58.266Z,95.5
2016-06-29T00:16:08.351Z,95.4
2016-06-29T00:16:18.290Z,95.4
2016-06-29T00:16:27.098Z,96.4
2016-06-29T00:16:38.289Z,96.4
2016-06-29T00:16:48.330Z,96.2
2016-06-29T00:16:58.330Z,95.9
2016-06-29T00:17:08.314Z,96
2016-06-29T00:17:18.325Z,96
2016-06-29T00:17:28.351Z,96.1
2016-06-29T00:17:38.329Z,96.2
2016-06-29T00:17:47.161Z,96.3
2016-06-29T00:17:58.362Z,96.1
2016-06-29T00:18:08.362Z,96.4
2016-06-29T00:18:18.357Z,96.1
2016-06-29T00:18:28.386Z,96.4
2016-06-29T00:18:38.373Z,96.5
2016-06-29T00:18:48.380Z,97.1
2016-06-29T00:18:58.391Z,96.8
2016-06-29T00:19:08.407Z,97.5
2016-06-29T00:19:18.427Z,97.3
2016-06-29T00:19:28.412Z,97.1
2016-06-29T00:19:38.413Z,96.8
2016-06-29T00:19:48.441Z,96.9
2016-06-29T00:19:58.436Z,97
2016-06-29T00:20:08.419Z,96.8
2016-06-29T00:20:18.457Z,97.1
2016-06-29T00:20:28.485Z,97.6
2016-06-29T00:20:38.450Z,97
2016-06-29T00:20:48.455Z,97.1
2016-06-29T00:20:58.469Z,97.7
2016-06-29T00:21:08.470Z,97.1
2016-06-29T00:21:18.480Z,97.5
2016-06-29T00:21:28.491Z,97.2
2016-06-29T00:21:38.509Z,97.4
2016-06-29T00:21:48.519Z,97.5
2016-06-29T00:21:58.509Z,97.8
2016-06-29T00:22:08.518Z,98
2016-06-29T00:22:18.532Z,97.6
2016-06-29T00:22:27.328Z,97.5
2016-06-29T00:22:38.541Z,97.3
2016-06-29T00:22:48.545Z,97.6
2016-06-29T00:22:58.530Z,97.6
2016-06-29T00:23:08.539Z,96.8
2016-06-29T00:23:18.553Z,97
2016-06-29T00:23:28.577Z,97
2016-06-29T00:23:38.561Z,96.9
2016-06-29T00:23:48.578Z,96.9
2016-06-29T00:23:58.611Z,97.1
2016-06-29T00:24:08.604Z,97.4
2016-06-29T00:24:18.660Z,97.6
2016-06-29T00:24:28.624Z,97.8
2016-06-29T00:24:38.615Z,98.1
2016-06-29T00:24:48.603Z,98
2016-06-29T00:24:58.663Z,98.2
2016-06-29T00:25:08.624Z,97.8
2016-06-29T00:25:18.635Z,97.8
2016-06-29T00:25:28.641Z,97.8
2016-06-29T00:25:38.655Z,98.6
2016-06-29T00:25:47.459Z,98.5
2016-06-29T00:25:58.667Z,98.3
2016-06-29T00:26:08.662Z,98.5
2016-06-29T00:26:18.722Z,98.6
2016-06-29T00:26:27.498Z,98.6
2016-06-29T00:26:38.682Z,98.5
2016-06-29T00:26:47.494Z,98.4
2016-06-29T00:26:57.494Z,98.2
2016-06-29T00:27:07.511Z,98.5
2016-06-29T00:27:18.705Z,98.7
2016-06-29T00:27:28.714Z,98.6
2016-06-29T00:27:38.818Z,98.7
2016-06-29T00:27:48.731Z,98.2
2016-06-29T00:27:58.744Z,98.4
2016-06-29T00:28:08.734Z,98.6
2016-06-29T00:28:18.771Z,98.7
2016-06-29T00:28:28.756Z,98.5
2016-06-29T00:28:38.776Z,98.9
2016-06-29T00:28:48.769Z,98.9
2016-06-29T00:28:58.836Z,98.6
2016-06-29T00:29:08.810Z,98.8
2016-06-29T00:29:18.786Z,98.5
2016-06-29T00:29:28.800Z,98.9
2016-06-29T00:29:37.610Z,98.9
2016-06-29T00:29:48.794Z,99
2016-06-29T00:29:58.823Z,98.8
2016-06-29T00:30:08.851Z,99.3
2016-06-29T00:30:18.830Z,99.4
2016-06-29T00:30:28.826Z,99.3
2016-06-29T00:30:38.843Z,99.5
2016-06-29T00:30:48.849Z,99.3
2016-06-29T00:30:58.873Z,99.4
2016-06-29T00:31:08.871Z,98.9
2016-06-29T00:31:18.862Z,99
2016-06-29T00:31:28.877Z,99.3
2016-06-29T00:31:38.875Z,99.4
2016-06-29T00:31:48.884Z,99.3
2016-06-29T00:31:58.894Z,99.3
2016-06-29T00:32:08.938Z,98.9
2016-06-29T00:32:18.904Z,98.8
2016-06-29T00:32:28.950Z,98.8
2016-06-29T00:32:38.917Z,99.3
2016-06-29T00:32:48.994Z,99.4
2016-06-29T00:32:58.954Z,99.2
2016-06-29T00:33:08.921Z,99.2
2016-06-29T00:33:19.029Z,99.3
2016-06-29T00:33:29.021Z,99.4
2016-06-29T00:33:38.967Z,99.4
2016-06-29T00:33:48.966Z,99.3
2016-06-29T00:33:58.965Z,99.2
2016-06-29T00:34:09.039Z,99.4
2016-06-29T00:34:19.028Z,99.4
2016-06-29T00:34:29.008Z,99.3
2016-06-29T00:34:39.005Z,99.7
2016-06-29T00:34:49.073Z,99.1
2016-06-29T00:34:58.999Z,98.6
2016-06-29T00:35:09.018Z,99.5
2016-06-29T00:35:19.022Z,99.2
2016-06-29T00:35:29.089Z,99.8
2016-06-29T00:35:39.027Z,99.2
2016-06-29T00:35:49.058Z,100
2016-06-29T00:35:59.054Z,100
2016-06-29T00:36:09.082Z,99.9
2016-06-29T00:36:19.062Z,99.5
2016-06-29T00:36:29.087Z,99.9
2016-06-29T00:36:39.073Z,99.9
2016-06-29T00:36:49.090Z,100
2016-06-29T00:36:59.084Z,100
2016-06-29T00:37:09.096Z,99.9
2016-06-29T00:37:19.107Z,100
2016-06-29T00:37:29.104Z,100
2016-06-29T00:37:39.137Z,100
2016-06-29T00:37:49.129Z,100
2016-06-29T00:37:59.132Z,100
2016-06-29T00:38:09.134Z,99.9
2016-06-29T00:38:19.138Z,100
2016-06-29T00:38:29.140Z,100
2016-06-29T00:38:39.154Z,100
2016-06-29T00:38:47.964Z,100
2016-06-29T00:38:59.161Z,99.7
2016-06-29T00:39:09.170Z,100
2016-06-29T00:39:17.984Z,99.6
2016-06-29T00:39:29.181Z,99.7
2016-06-29T00:39:39.193Z,99.7
2016-06-29T00:39:49.197Z,99.7
2016-06-29T00:39:58.012Z,99.8
2016-06-29T00:40:09.206Z,99.8
2016-06-29T00:40:19.224Z,100
2016-06-29T00:40:29.239Z,100
2016-06-29T00:40:39.235Z,100
2016-06-29T00:40:49.252Z,99.8
2016-06-29T00:40:59.277Z,99.7
2016-06-29T00:41:09.242Z,99.7
2016-06-29T00:41:19.291Z,99.8
2016-06-29T00:41:28.078Z,99.8
2016-06-29T00:41:38.128Z,99.8
2016-06-29T00:41:49.286Z,99.8
2016-06-29T00:41:59.295Z,99.8
2016-06-29T00:42:09.292Z,99.7
2016-06-29T00:42:19.302Z,100
2016-06-29T00:42:29.301Z,100
2016-06-29T00:42:39.320Z,99.9
2016-06-29T00:42:49.324Z,100
2016-06-29T00:42:59.322Z,100
2016-06-29T00:43:09.334Z,100
2016-06-29T00:43:19.328Z,100
2016-06-29T00:43:29.362Z,100
2016-06-29T00:43:39.346Z,100
2016-06-29T00:43:49.361Z,100
2016-06-29T00:43:59.343Z,100
2016-06-29T00:44:09.359Z,100
2016-06-29T00:44:19.373Z,100
2016-06-29T00:44:29.371Z,100
2016-06-29T00:44:39.386Z,100
2016-06-29T00:44:49.397Z,100
2016-06-29T00:44:59.389Z,100
2016-06-29T00:45:09.403Z,100
2016-06-29T00:45:19.415Z,100
2016-06-29T00:45:29.449Z,100
2016-06-29T00:45:39.417Z,100
2016-06-29T00:45:49.414Z,100
2016-06-29T00:45:59.444Z,100
2016-06-29T00:46:09.466Z,100
2016-06-29T00:46:19.451Z,100
2016-06-29T00:46:29.451Z,100
2016-06-29T00:46:39.470Z,100
2016-06-29T00:46:49.465Z,100
2016-06-29T00:46:59.471Z,100
2016-06-29T00:47:09.496Z,100
2016-06-29T00:47:18.298Z,100
2016-06-29T00:47:29.497Z,100
2016-06-29T00:47:39.491Z,100
2016-06-29T00:47:49.534Z,100
2016-06-29T00:47:59.536Z,100
2016-06-29T00:48:09.565Z,100
2016-06-29T00:48:18.343Z,100
2016-06-29T00:48:29.541Z,100
2016-06-29T00:48:39.537Z,100
2016-06-29T00:48:49.539Z,100
2016-06-29T00:48:59.555Z,100
2016-06-29T00:49:09.544Z,100
2016-06-29T00:49:19.573Z,100
2016-06-29T00:49:29.571Z,100
2016-06-29T00:49:39.595Z,100
2016-06-29T00:49:49.580Z,100
2016-06-29T00:49:59.795Z,100
2016-06-29T00:50:09.589Z,100
2016-06-29T00:50:19.594Z,100
2016-06-29T00:50:29.617Z,100
2016-06-29T00:50:39.608Z,100
2016-06-29T00:50:49.612Z,100
2016-06-29T00:50:59.642Z,100
2016-06-29T00:51:09.626Z,100
2016-06-29T00:51:19.858Z,100
2016-06-29T00:51:29.650Z,100
2016-06-29T00:51:39.663Z,100
2016-06-29T00:51:49.668Z,100
2016-06-29T00:51:59.704Z,100
2016-06-29T00:52:09.676Z,100
2016-06-29T00:52:19.683Z,100
2016-06-29T00:52:29.675Z,100
2016-06-29T00:52:39.927Z,100
2016-06-29T00:52:48.496Z,100
2016-06-29T00:52:59.703Z,100
2016-06-29T00:53:09.731Z,100
2016-06-29T00:53:19.745Z,100
2016-06-29T00:53:28.557Z,100
2016-06-29T00:53:39.730Z,99.9
2016-06-29T00:53:49.730Z,100
2016-06-29T00:53:58.585Z,100
2016-06-29T00:54:09.731Z,100
2016-06-29T00:54:18.569Z,100
2016-06-29T00:54:29.761Z,99.9
2016-06-29T00:54:39.771Z,99.8
2016-06-29T00:54:49.793Z,99.8
2016-06-29T00:54:59.778Z,100
2016-06-29T00:55:09.787Z,99.6
2016-06-29T00:55:19.804Z,100
2016-06-29T00:55:29.807Z,100
2016-06-29T00:55:39.800Z,100
2016-06-29T00:55:49.805Z,100
2016-06-29T00:55:59.814Z,100
2016-06-29T00:56:09.854Z,99.9
2016-06-29T00:56:19.835Z,99.8
2016-06-29T00:56:29.839Z,99.8
2016-06-29T00:56:39.875Z,99.7
2016-06-29T00:56:49.845Z,99.8
2016-06-29T00:56:59.859Z,99.8
2016-06-29T00:57:09.878Z,99.6
2016-06-29T00:57:19.874Z,100
2016-06-29T00:57:29.873Z,100
2016-06-29T00:57:39.879Z,99.5
2016-06-29T00:57:50.111Z,99.6
2016-06-29T00:57:59.895Z,100
2016-06-29T00:58:10.240Z,100
2016-06-29T00:58:19.915Z,99.9
2016-06-29T00:58:29.920Z,100
2016-06-29T00:58:39.928Z,100
2016-06-29T00:58:49.944Z,100
2016-06-29T00:58:58.736Z,100
2016-06-29T00:59:09.940Z,100
2016-06-29T00:59:19.940Z,100
2016-06-29T00:59:29.980Z,100
2016-06-29T00:59:39.974Z,100
2016-06-29T00:59:50.044Z,100
2016-06-29T00:59:59.980Z,100
2016-06-29T01:00:09.985Z,100
2016-06-29T01:00:20.025Z,100
2016-06-29T01:00:30.067Z,100
2016-06-29T01:00:40.039Z,100
2016-06-29T01:00:50.014Z,100
2016-06-29T01:00:58.928Z,100
2016-06-29T01:01:10.046Z,100
2016-06-29T01:01:20.039Z,100
2016-06-29T01:01:30.034Z,100
2016-06-29T01:01:40.037Z,100
2016-06-29T01:01:50.094Z,100
2016-06-29T01:01:58.852Z,100
2016-06-29T01:02:10.074Z,100
2016-06-29T01:02:20.067Z,100
2016-06-29T01:02:30.083Z,100
2016-06-29T01:02:40.087Z,100
2016-06-29T01:02:50.094Z,100
2016-06-29T01:03:00.088Z,100
2016-06-29T01:03:10.111Z,100
2016-06-29T01:03:20.099Z,100
2016-06-29T01:03:30.114Z,100
2016-06-29T01:03:40.115Z,100
2016-06-29T01:03:50.119Z,100
2016-06-29T01:04:00.135Z,100
2016-06-29T01:04:10.140Z,100
2016-06-29T01:04:20.161Z,100
2016-06-29T01:04:30.154Z,100
2016-06-29T01:04:40.150Z,100
2016-06-29T01:04:50.211Z,100
2016-06-29T01:05:00.370Z,100
2016-06-29T01:05:10.198Z,100
2016-06-29T01:05:20.185Z,100
2016-06-29T01:05:30.198Z,100
2016-06-29T01:05:40.407Z,100
2016-06-29T01:05:50.208Z,100
2016-06-29T01:06:00.234Z,100
2016-06-29T01:06:10.199Z,100
2016-06-29T01:06:20.211Z,100
2016-06-29T01:06:30.225Z,100
2016-06-29T01:06:40.232Z,100
2016-06-29T01:06:50.243Z,100
2016-06-29T01:07:00.241Z,100
2016-06-29T01:07:10.265Z,100
2016-06-29T01:07:20.255Z,100
2016-06-29T01:07:30.272Z,100
2016-06-29T01:07:40.280Z,100
2016-06-29T01:07:50.264Z,100
2016-06-29T01:08:00.277Z,100
2016-06-29T01:08:10.286Z,100
2016-06-29T01:08:20.326Z,100
2016-06-29T01:08:30.314Z,100
2016-06-29T01:08:40.300Z,100
2016-06-29T01:08:49.159Z,100
2016-06-29T01:09:00.350Z,100
2016-06-29T01:09:09.123Z,100
2016-06-29T01:09:20.363Z,100
2016-06-29T01:09:29.171Z,100
2016-06-29T01:09:40.378Z,100
2016-06-29T01:09:50.349Z,100
2016-06-29T01:10:00.376Z,100
2016-06-29T01:10:10.360Z,100
2016-06-29T01:10:20.373Z,100
2016-06-29T01:10:30.382Z,100
2016-06-29T01:10:40.388Z,100
2016-06-29T01:10:50.392Z,100
2016-06-29T01:11:00.394Z,100
2016-06-29T01:11:09.248Z,100
2016-06-29T01:11:20.437Z,100
2016-06-29T01:11:30.409Z,100
2016-06-29T01:11:40.418Z,100
2016-06-29T01:11:50.430Z,100
2016-06-29T01:12:00.475Z,100
2016-06-29T01:12:09.259Z,100
2016-06-29T01:12:20.456Z,100
2016-06-29T01:12:30.459Z,100
2016-06-29T01:12:40.467Z,100
2016-06-29T01:12:50.471Z,100
2016-06-29T01:12:59.302Z,100
2016-06-29T01:13:10.478Z,100
2016-06-29T01:13:20.480Z,100
2016-06-29T01:13:30.704Z,100
2016-06-29T01:13:40.528Z,100
2016-06-29T01:13:50.513Z,100
2016-06-29T01:14:00.502Z,100
2016-06-29T01:14:10.601Z,100
2016-06-29T01:14:19.350Z,100
2016-06-29T01:14:30.539Z,100
2016-06-29T01:14:40.541Z,100
2016-06-29T01:14:50.644Z,100
2016-06-29T01:14:59.378Z,100
2016-06-29T01:15:10.567Z,100
2016-06-29T01:15:19.377Z,100
2016-06-29T01:15:30.782Z,100
2016-06-29T01:15:40.582Z,100
2016-06-29T01:15:50.618Z,100
2016-06-29T01:16:00.600Z,100
2016-06-29T01:16:10.611Z,100
2016-06-29T01:16:20.601Z,100
2016-06-29T01:16:30.646Z,100
2016-06-29T01:16:40.610Z,100
2016-06-29T01:16:50.649Z,100
2016-06-29T01:17:00.631Z,100
2016-06-29T01:17:10.686Z,100
2016-06-29T01:17:20.629Z,100
2016-06-29T01:17:30.645Z,100
2016-06-29T01:17:40.662Z,100
2016-06-29T01:17:50.738Z,100
2016-06-29T01:18:00.663Z,100
2016-06-29T01:18:10.684Z,100
2016-06-29T01:18:20.675Z,100
2016-06-29T01:18:30.697Z,100
2016-06-29T01:18:40.699Z,100
2016-06-29T01:18:50.696Z,100
2016-06-29T01:19:00.692Z,100
2016-06-29T01:19:10.750Z,100
2016-06-29T01:19:19.520Z,100
2016-06-29T01:19:30.723Z,100
2016-06-29T01:19:40.748Z,100
2016-06-29T01:19:50.764Z,100
2016-06-29T01:20:00.747Z,100
2016-06-29T01:20:10.753Z,100
2016-06-29T01:20:20.767Z,100
2016-06-29T01:20:30.780Z,100
2016-06-29T01:20:39.574Z,100
2016-06-29T01:20:50.810Z,100
2016-06-29T01:21:00.793Z,100
2016-06-29T01:21:10.793Z,100
2016-06-29T01:21:19.603Z,100
2016-06-29T01:21:30.814Z,100
2016-06-29T01:21:40.831Z,100
2016-06-29T01:21:50.828Z,100
2016-06-29T01:22:00.835Z,100
2016-06-29T01:22:10.838Z,100
2016-06-29T01:22:19.643Z,100
2016-06-29T01:22:30.842Z,100
2016-06-29T01:22:40.846Z,100
2016-06-29T01:22:50.839Z,100
2016-06-29T01:22:59.655Z,100
2016-06-29T01:23:10.865Z,100
2016-06-29T01:23:20.887Z,100
2016-06-29T01:23:30.887Z,100
2016-06-29T01:23:39.693Z,100
2016-06-29T01:23:50.897Z,100
2016-06-29T01:24:00.932Z,100
2016-06-29T01:24:10.912Z,100
2016-06-29T01:24:19.711Z,100
2016-06-29T01:24:30.926Z,100
2016-06-29T01:24:40.925Z,100
2016-06-29T01:24:50.938Z,100
2016-06-29T01:25:00.971Z,100
2016-06-29T01:25:10.931Z,100
2016-06-29T01:25:19.766Z,100
2016-06-29T01:25:29.756Z,100
2016-06-29T01:25:40.963Z,100
2016-06-29T01:25:50.986Z,100
2016-06-29T01:26:00.986Z,100
2016-06-29T01:26:10.979Z,100
2016-06-29T01:26:20.978Z,100
2016-06-29T01:26:30.981Z,100
2016-06-29T01:26:41.003Z,100
2016-06-29T01:26:51.009Z,100
2016-06-29T01:27:01.023Z,100
2016-06-29T01:27:11.015Z,100
2016-06-29T01:27:19.836Z,100
2016-06-29T01:27:31.025Z,100
2016-06-29T01:27:41.042Z,100
2016-06-29T01:27:51.277Z,100
2016-06-29T01:28:01.036Z,100
2016-06-29T01:28:11.047Z,100
2016-06-29T01:28:21.056Z,100
2016-06-29T01:28:31.077Z,100
2016-06-29T01:28:41.367Z,100
2016-06-29T01:28:51.112Z,100
2016-06-29T01:29:01.085Z,100
2016-06-29T01:29:11.082Z,100
2016-06-29T01:29:21.092Z,100
2016-06-29T01:29:31.105Z,100
2016-06-29T01:29:41.150Z,100
2016-06-29T01:29:51.186Z,100
2016-06-29T01:29:59.926Z,100
2016-06-29T01:30:09.956Z,100
2016-06-29T01:30:21.166Z,100
2016-06-29T01:30:31.159Z,100
2016-06-29T01:30:41.150Z,100
2016-06-29T01:30:51.209Z,100
2016-06-29T01:31:01.154Z,100
2016-06-29T01:31:11.158Z,100
2016-06-29T01:31:21.170Z,100
2016-06-29T01:31:31.183Z,100
2016-06-29T01:31:41.189Z,100
2016-06-29T01:31:51.210Z,100
2016-06-29T01:32:01.217Z,100
2016-06-29T01:32:11.246Z,100
2016-06-29T01:32:21.220Z,100
2016-06-29T01:32:31.227Z,100
2016-06-29T01:32:41.214Z,100
2016-06-29T01:32:51.277Z,100
2016-06-29T01:33:01.239Z,100
2016-06-29T01:33:11.259Z,100
2016-06-29T01:33:21.247Z,100
2016-06-29T01:33:31.270Z,100
2016-06-29T01:33:41.283Z,100
2016-06-29T01:33:51.264Z,100
2016-06-29T01:34:01.273Z,100
2016-06-29T01:34:10.089Z,100
2016-06-29T01:34:21.284Z,100
2016-06-29T01:34:31.298Z,100
2016-06-29T01:34:41.307Z,100
2016-06-29T01:34:51.374Z,100
2016-06-29T01:35:01.310Z,100
2016-06-29T01:35:11.318Z,100
2016-06-29T01:35:21.321Z,100
2016-06-29T01:35:31.397Z,100
2016-06-29T01:35:41.366Z,100
2016-06-29T01:35:51.356Z,100
2016-06-29T01:36:01.340Z,100
2016-06-29T01:36:11.349Z,100
2016-06-29T01:36:21.359Z,100
2016-06-29T01:36:31.384Z,100
2016-06-29T01:36:41.407Z,100
2016-06-29T01:36:51.385Z,100
2016-06-29T01:37:01.394Z,100
2016-06-29T01:37:11.426Z,100
2016-06-29T01:37:20.204Z,100
2016-06-29T01:37:31.417Z,100
2016-06-29T01:37:41.414Z,100
2016-06-29T01:37:51.422Z,100
2016-06-29T01:38:01.449Z,100
2016-06-29T01:38:11.437Z,100
2016-06-29T01:38:21.450Z,100
2016-06-29T01:38:31.450Z,100
2016-06-29T01:38:41.439Z,100
2016-06-29T01:38:51.464Z,100
2016-06-29T01:39:01.476Z,100
2016-06-29T01:39:11.480Z,100
2016-06-29T01:39:21.496Z,100
2016-06-29T01:39:31.485Z,100
2016-06-29T01:39:40.300Z,100
2016-06-29T01:39:51.484Z,100
2016-06-29T01:40:01.503Z,100
2016-06-29T01:40:11.517Z,100
2016-06-29T01:40:21.524Z,100
2016-06-29T01:40:31.541Z,100
2016-06-29T01:40:41.535Z,100
2016-06-29T01:40:50.336Z,100
2016-06-29T01:41:01.537Z,100
2016-06-29T01:41:11.542Z,100
2016-06-29T01:41:21.559Z,100
2016-06-29T01:41:30.366Z,100
2016-06-29T01:41:41.561Z,100
2016-06-29T01:41:51.573Z,100
2016-06-29T01:42:00.397Z,100
2016-06-29T01:42:10.398Z,100
2016-06-29T01:42:21.606Z,100
2016-06-29T01:42:31.606Z,100
2016-06-29T01:42:41.593Z,100
2016-06-29T01:42:51.613Z,100
2016-06-29T01:43:01.631Z,100
2016-06-29T01:43:11.626Z,100
2016-06-29T01:43:21.627Z,100
2016-06-29T01:43:31.657Z,100
2016-06-29T01:43:40.465Z,100
2016-06-29T01:43:51.644Z,100
2016-06-29T01:44:01.657Z,100
2016-06-29T01:44:11.727Z,100
2016-06-29T01:44:21.663Z,100
2016-06-29T01:44:31.683Z,100
2016-06-29T01:44:41.675Z,100
2016-06-29T01:44:51.712Z,100
2016-06-29T01:45:01.701Z,100
2016-06-29T01:45:10.517Z,100
2016-06-29T01:45:21.703Z,100
2016-06-29T01:45:31.717Z,100
2016-06-29T01:45:41.734Z,100
2016-06-29T01:45:51.731Z,100
2016-06-29T01:46:01.732Z,100
2016-06-29T01:46:11.833Z,100
2016-06-29T01:46:21.746Z,100
2016-06-29T01:46:31.754Z,100
2016-06-29T01:46:41.754Z,100
2016-06-29T01:46:51.760Z,100
2016-06-29T01:47:01.777Z,100
2016-06-29T01:47:11.782Z,100
2016-06-29T01:47:21.781Z,100
2016-06-29T01:47:31.791Z,100
2016-06-29T01:47:41.797Z,100
2016-06-29T01:47:51.800Z,100
2016-06-29T01:48:01.802Z,100
2016-06-29T01:48:11.850Z,100
2016-06-29T01:48:21.820Z,100
2016-06-29T01:48:30.636Z,100
2016-06-29T01:48:41.834Z,100
2016-06-29T01:48:51.866Z,100
2016-06-29T01:49:00.656Z,100
2016-06-29T01:49:11.840Z,100
2016-06-29T01:49:21.863Z,100
2016-06-29T01:49:31.858Z,100
2016-06-29T01:49:41.895Z,100
2016-06-29T01:49:51.878Z,100
2016-06-29T01:50:01.913Z,100
2016-06-29T01:50:10.721Z,100
2016-06-29T01:50:21.888Z,100
2016-06-29T01:50:31.921Z,100
2016-06-29T01:50:41.940Z,100
2016-06-29T01:50:51.943Z,100
2016-06-29T01:51:01.921Z,100
2016-06-29T01:51:11.951Z,100
2016-06-29T01:51:22.016Z,100
2016-06-29T01:51:31.934Z,100
2016-06-29T01:51:41.954Z,100
2016-06-29T01:51:51.975Z,100
2016-06-29T01:52:01.965Z,100
2016-06-29T01:52:11.982Z,100
2016-06-29T01:52:21.987Z,100
2016-06-29T01:52:31.978Z,100
2016-06-29T01:52:41.982Z,100
2016-06-29T01:52:51.985Z,100
2016-06-29T01:53:02.009Z,100
2016-06-29T01:53:12.010Z,100
2016-06-29T01:53:22.052Z,100
2016-06-29T01:53:32.021Z,100
2016-06-29T01:53:40.835Z,100
2016-06-29T01:53:52.047Z,100
2016-06-29T01:54:02.042Z,100
2016-06-29T01:54:12.054Z,100
2016-06-29T01:54:20.856Z,100
2016-06-29T01:54:32.055Z,100
2016-06-29T01:54:42.059Z,100
2016-06-29T01:54:50.889Z,100
2016-06-29T01:55:02.107Z,100
2016-06-29T01:55:12.094Z,100
2016-06-29T01:55:22.091Z,100
2016-06-29T01:55:30.900Z,100
2016-06-29T01:55:42.107Z,100
2016-06-29T01:55:52.325Z,100
2016-06-29T01:56:02.140Z,100
2016-06-29T01:56:12.140Z,100
2016-06-29T01:56:22.138Z,100
2016-06-29T01:56:32.348Z,100
2016-06-29T01:56:42.141Z,100
2016-06-29T01:56:52.153Z,100
2016-06-29T01:57:02.174Z,100
2016-06-29T01:57:12.189Z,100
2016-06-29T01:57:22.170Z,100
2016-06-29T01:57:30.988Z,100
2016-06-29T01:57:42.182Z,100
2016-06-29T01:57:52.262Z,100
2016-06-29T01:58:02.203Z,100
2016-06-29T01:58:12.200Z,100
2016-06-29T01:58:22.215Z,100
2016-06-29T01:58:32.262Z,100
2016-06-29T01:58:42.214Z,100
2016-06-29T01:58:52.242Z,100
2016-06-29T01:59:01.087Z,100
2016-06-29T01:59:12.247Z,100
2016-06-29T01:59:22.237Z,100
2016-06-29T01:59:32.279Z,100
2016-06-29T01:59:42.245Z,100
2016-06-29T01:59:52.305Z,100
2016-06-29T02:00:02.302Z,100
2016-06-29T02:00:12.314Z,100
2016-06-29T02:00:22.278Z,100
2016-06-29T02:00:31.095Z,100
2016-06-29T02:00:42.312Z,100
2016-06-29T02:00:52.294Z,100
2016-06-29T02:01:02.321Z,100
2016-06-29T02:01:12.318Z,100
2016-06-29T02:01:22.333Z,100
2016-06-29T02:01:32.349Z,100
2016-06-29T02:01:41.191Z,100
2016-06-29T02:01:52.348Z,100
2016-06-29T02:02:02.361Z,100
2016-06-29T02:02:12.402Z,100
2016-06-29T02:02:22.343Z,100
2016-06-29T02:02:32.387Z,100
2016-06-29T02:02:42.384Z,100
2016-06-29T02:02:51.178Z,100
2016-06-29T02:03:02.379Z,100
2016-06-29T02:03:12.387Z,100
2016-06-29T02:03:21.218Z,100
2016-06-29T02:03:32.423Z,100
2016-06-29T02:03:42.445Z,100
2016-06-29T02:03:52.422Z,100
2016-06-29T02:04:02.455Z,100
2016-06-29T02:04:12.424Z,100
2016-06-29T02:04:22.481Z,100
2016-06-29T02:04:31.248Z,100
2016-06-29T02:04:42.453Z,100
2016-06-29T02:04:52.467Z,100
2016-06-29T02:05:02.539Z,100
2016-06-29T02:05:12.469Z,100
2016-06-29T02:05:22.562Z,100
2016-06-29T02:05:32.483Z,100
2016-06-29T02:05:42.534Z,100
2016-06-29T02:05:52.494Z,100
2016-06-29T02:06:01.296Z,100
2016-06-29T02:06:12.502Z,100
2016-06-29T02:06:22.511Z,100
2016-06-29T02:06:32.522Z,100
2016-06-29T02:06:41.344Z,100
2016-06-29T02:06:52.550Z,100
2016-06-29T02:07:02.570Z,100
2016-06-29T02:07:12.539Z,100
2016-06-29T02:07:22.569Z,100
2016-06-29T02:07:32.557Z,100
2016-06-29T02:07:42.563Z,100
2016-06-29T02:07:52.566Z,100
2016-06-29T02:08:02.665Z,100
2016-06-29T02:08:12.574Z,100
2016-06-29T02:08:22.618Z,100
2016-06-29T02:08:32.628Z,100
2016-06-29T02:08:42.607Z,100
2016-06-29T02:08:52.602Z,100
2016-06-29T02:09:02.619Z,100
2016-06-29T02:09:12.626Z,100
2016-06-29T02:09:21.434Z,100
2016-06-29T02:09:32.635Z,100
2016-06-29T02:09:42.632Z,100
2016-06-29T02:09:51.458Z,100
2016-06-29T02:10:02.657Z,100
2016-06-29T02:10:12.674Z,100
2016-06-29T02:10:22.664Z,100
2016-06-29T02:10:32.661Z,100
2016-06-29T02:10:42.680Z,100
2016-06-29T02:10:52.693Z,100
2016-06-29T02:11:02.691Z,100
2016-06-29T02:11:12.693Z,100
2016-06-29T02:11:22.702Z,100
2016-06-29T02:11:32.727Z,100
2016-06-29T02:11:42.725Z,100
2016-06-29T02:11:52.730Z,100
2016-06-29T02:12:02.738Z,100
2016-06-29T02:12:12.745Z,100
2016-06-29T02:12:21.542Z,100
2016-06-29T02:12:32.764Z,100
2016-06-29T02:12:42.788Z,100
2016-06-29T02:12:52.756Z,100
2016-06-29T02:13:01.587Z,100
2016-06-29T02:13:12.767Z,100
2016-06-29T02:13:22.773Z,100
2016-06-29T02:13:32.779Z,100
2016-06-29T02:13:42.798Z,100
2016-06-29T02:13:51.608Z,100
2016-06-29T02:14:02.814Z,100
2016-06-29T02:14:12.805Z,100
2016-06-29T02:14:22.817Z,100
2016-06-29T02:14:32.817Z,100
2016-06-29T02:14:42.819Z,100
2016-06-29T02:14:52.839Z,100
2016-06-29T02:15:02.852Z,100
2016-06-29T02:15:12.860Z,100
2016-06-29T02:15:22.874Z,100
2016-06-29T02:15:31.672Z,100
2016-06-29T02:15:42.865Z,100
2016-06-29T02:15:52.925Z,100
2016-06-29T02:16:02.885Z,100
2016-06-29T02:16:12.884Z,100
2016-06-29T02:16:22.890Z,100
2016-06-29T02:16:32.954Z,100